Topock, Arizona
Current Conditions -  °F | °C
As of 12:56 PM on Tuesday 21 Oct 2014 (Local Time) from KEED Reporting Station
Clear Clear  
Wind Chill: 92°   Ceiling: Unl
Heat Index: 92°   Visibility: 10mi
Dew Point: 45°   Wind: 8mph
Humidity: 20%   Direction: 200°SSW
Pressure: 29.8"   Gusts: NA
Location:  34.73°N, 114.48°W
Report Text: KEED 211956Z AUTO 20007KT 10SM CLR 33/07 A2980 RMK AO2 SLP062 T03330072
Loading
Personal Weather Stations






























Interactive Weather Map
Tropical Storm Tracking
New forecast layout! Learn more

10-Day Weather Forecast

Advertisements
Track Severe Weather on mobile